Perkinsville, North Carolina
Current Conditions -  °F | °C
As of 4:15 PM on Tuesday 21 Oct 2014 (Local Time) from KTNB Reporting Station
Scattered Clouds Scattered Clouds  
Wind Chill: 55°   Ceiling: Unl
Heat Index: 55°   Visibility: 10mi
Dew Point: 38°   Wind: 10mph
Humidity: 53%   Direction: 280°W
Pressure: 29.95"   Gusts: 24mph
Location:  36.2085°N, 81.6605°W
Report Text: KTNB 212015Z AUTO 28009G21KT 230V330 10SM SCT047 SCT060 13/03 A2995 RMK AO2 T01260032
Loading
Personal Weather Stations






























Interactive Weather Map
Tropical Storm Tracking
New forecast layout! Learn more

10-Day Weather Forecast

Advertisements
Track Severe Weather on mobile